createdAt,value
2023-01-19T00:01:31.158Z,100.00
2023-01-19T00:04:00.919Z,100.00
2023-01-19T00:06:32.163Z,100.00
2023-01-19T00:09:00.344Z,100.00
2023-01-19T00:11:28.512Z,100.00
2023-01-19T00:13:56.767Z,100.00
2023-01-19T00:16:24.957Z,100.00
2023-01-19T00:18:56.648Z,100.00
2023-01-19T00:21:26.206Z,100.00
2023-01-19T00:23:56.127Z,100.00
2023-01-19T00:26:24.283Z,100.00
2023-01-19T00:28:55.416Z,100.00
2023-01-19T00:31:23.560Z,100.00
2023-01-19T00:33:52.924Z,100.00
2023-01-19T00:36:21.189Z,100.00
2023-01-19T00:38:50.673Z,100.00
2023-01-19T00:41:18.952Z,100.00
2023-01-19T00:43:47.128Z,100.00
2023-01-19T00:46:15.244Z,100.00
2023-01-19T00:48:43.379Z,100.00
2023-01-19T00:51:11.565Z,100.00
2023-01-19T00:53:39.747Z,100.00
2023-01-19T00:56:09.727Z,100.00
2023-01-19T00:58:37.822Z,100.00
2023-01-19T01:01:09.643Z,100.00
2023-01-19T01:03:37.914Z,100.00
2023-01-19T01:06:08.478Z,100.00
2023-01-19T01:08:36.696Z,100.00
2023-01-19T01:11:04.971Z,100.00
2023-01-19T01:13:41.607Z,100.00
2023-01-19T01:16:10.085Z,100.00
2023-01-19T01:18:38.177Z,100.00
2023-01-19T01:21:10.245Z,100.00
2023-01-19T01:23:41.046Z,100.00
2023-01-19T01:26:09.183Z,100.00
2023-01-19T01:28:38.772Z,100.00
2023-01-19T01:31:06.875Z,100.00
2023-01-19T01:33:40.689Z,100.00
2023-01-19T01:36:11.924Z,100.00
2023-01-19T01:38:40.312Z,100.00
2023-01-19T01:41:09.224Z,100.00
2023-01-19T01:43:48.171Z,100.00
2023-01-19T01:46:20.059Z,100.00
2023-01-19T01:48:54.923Z,100.00
2023-01-19T01:51:29.727Z,100.00
2023-01-19T01:54:15.136Z,100.00
2023-01-19T01:56:45.685Z,100.00
2023-01-19T01:59:25.946Z,100.00
2023-01-19T02:02:12.921Z,100.00
2023-01-19T02:04:42.926Z,100.00
2023-01-19T02:07:31.202Z,100.00
2023-01-19T02:10:16.741Z,100.00
2023-01-19T02:13:02.408Z,100.00
2023-01-19T02:15:32.303Z,100.00
2023-01-19T02:18:00.668Z,100.00
2023-01-19T02:20:32.487Z,100.00
2023-01-19T02:23:07.371Z,100.00
2023-01-19T02:25:36.917Z,100.00
2023-01-19T02:28:08.351Z,100.00
2023-01-19T02:30:40.041Z,100.00
2023-01-19T02:33:08.462Z,100.00
2023-01-19T02:35:42.371Z,100.00
2023-01-19T02:38:12.177Z,100.00
2023-01-19T02:40:46.657Z,100.00
2023-01-19T02:43:16.382Z,100.00
2023-01-19T02:45:44.834Z,100.00
2023-01-19T02:48:15.366Z,100.00
2023-01-19T02:50:47.573Z,100.00
2023-01-19T02:53:46.894Z,100.00
2023-01-19T02:56:54.653Z,100.00
2023-01-19T02:59:35.769Z,100.00
2023-01-19T03:02:17.715Z,100.00
2023-01-19T03:05:00.305Z,100.00
2023-01-19T03:07:40.329Z,100.00
2023-01-19T03:10:12.984Z,100.00
2023-01-19T03:12:48.299Z,100.00
2023-01-19T03:15:22.414Z,100.00
2023-01-19T03:17:52.670Z,100.00
2023-01-19T03:20:24.868Z,100.00
2023-01-19T03:23:00.345Z,100.00
2023-01-19T03:25:31.443Z,100.00
2023-01-19T03:28:01.037Z,100.00
2023-01-19T03:30:33.640Z,100.00
2023-01-19T03:33:07.345Z,100.00
2023-01-19T03:35:38.296Z,100.00
2023-01-19T03:38:11.644Z,100.00
2023-01-19T03:40:40.631Z,100.00
2023-01-19T03:43:10.988Z,100.00
2023-01-19T03:45:40.449Z,100.00
2023-01-19T03:48:09.152Z,100.00
2023-01-19T03:50:39.876Z,100.00
2023-01-19T03:53:12.306Z,100.00
2023-01-19T03:55:42.596Z,100.00
2023-01-19T03:58:12.260Z,100.00
2023-01-19T04:00:40.961Z,100.00
2023-01-19T04:03:15.558Z,100.00
2023-01-19T04:05:46.118Z,100.00
2023-01-19T04:08:16.876Z,100.00
2023-01-19T04:10:47.019Z,100.00
2023-01-19T04:13:16.591Z,100.00
2023-01-19T04:15:44.687Z,100.00
2023-01-19T04:18:12.769Z,100.00
2023-01-19T04:20:40.893Z,100.00
2023-01-19T04:23:11.013Z,100.00
2023-01-19T04:25:39.163Z,100.00
2023-01-19T04:28:07.298Z,100.00
2023-01-19T04:30:36.817Z,100.00
2023-01-19T04:33:04.957Z,100.00
2023-01-19T04:35:34.364Z,100.00
2023-01-19T04:38:02.539Z,100.00
2023-01-19T04:40:30.953Z,100.00
2023-01-19T04:42:59.262Z,100.00
2023-01-19T04:45:27.556Z,100.00
2023-01-19T04:47:57.080Z,100.00
2023-01-19T04:50:25.462Z,100.00
2023-01-19T04:52:56.125Z,100.00
2023-01-19T04:55:24.522Z,100.00
2023-01-19T04:57:52.609Z,100.00
2023-01-19T05:00:23.518Z,100.00
2023-01-19T05:02:54.908Z,100.00
2023-01-19T05:05:24.507Z,100.00
2023-01-19T05:07:52.655Z,100.00
2023-01-19T05:10:20.908Z,100.00
2023-01-19T05:12:49.054Z,100.00
2023-01-19T05:15:19.570Z,100.00
2023-01-19T05:17:48.089Z,100.00
2023-01-19T05:20:17.519Z,100.00
2023-01-19T05:22:50.762Z,100.00
2023-01-19T05:25:18.888Z,100.00
2023-01-19T05:27:47.084Z,100.00
2023-01-19T05:30:15.784Z,100.00
2023-01-19T05:32:46.190Z,100.00
2023-01-19T05:35:20.200Z,100.00
2023-01-19T05:37:54.705Z,100.00
2023-01-19T05:40:25.574Z,100.00
2023-01-19T05:42:54.140Z,100.00
2023-01-19T05:45:23.924Z,100.00
2023-01-19T05:47:52.116Z,100.00
2023-01-19T05:50:22.946Z,100.00
2023-01-19T05:52:53.355Z,100.00
2023-01-19T05:55:23.240Z,100.00
2023-01-19T05:57:51.394Z,100.00
2023-01-19T06:00:20.285Z,100.00
2023-01-19T06:02:49.400Z,100.00
2023-01-19T06:05:18.324Z,100.00
2023-01-19T06:07:46.579Z,100.00
2023-01-19T06:10:14.705Z,100.00
2023-01-19T06:12:44.294Z,100.00
2023-01-19T06:15:14.534Z,100.00
2023-01-19T06:17:43.176Z,100.00
2023-01-19T06:20:14.079Z,100.00
2023-01-19T06:22:44.351Z,100.00
2023-01-19T06:25:13.167Z,100.00
2023-01-19T06:27:46.464Z,100.00
2023-01-19T06:30:15.216Z,100.00
2023-01-19T06:32:43.340Z,100.00
2023-01-19T06:35:13.819Z,100.00
2023-01-19T06:37:42.021Z,100.00
2023-01-19T06:40:13.616Z,100.00
2023-01-19T06:42:45.024Z,100.00
2023-01-19T06:45:17.014Z,100.00
2023-01-19T06:47:45.125Z,100.00
2023-01-19T06:50:13.194Z,100.00
2023-01-19T06:52:42.695Z,100.00
2023-01-19T06:55:14.331Z,100.00
2023-01-19T06:57:42.512Z,100.00
2023-01-19T07:00:13.966Z,100.00
2023-01-19T07:02:44.578Z,100.00
2023-01-19T07:05:14.550Z,100.00
2023-01-19T07:07:44.879Z,100.00
2023-01-19T07:10:15.825Z,100.00
2023-01-19T07:12:46.529Z,100.00
2023-01-19T07:15:15.554Z,100.00
2023-01-19T07:17:45.579Z,100.00
2023-01-19T07:20:15.196Z,100.00
2023-01-19T07:22:47.260Z,100.00
2023-01-19T07:25:16.180Z,100.00
2023-01-19T07:27:45.127Z,100.00
2023-01-19T07:30:13.970Z,100.00
2023-01-19T07:32:42.705Z,100.00
2023-01-19T07:35:12.506Z,100.00
2023-01-19T07:37:40.754Z,100.00
2023-01-19T07:40:10.323Z,100.00
2023-01-19T07:42:38.424Z,100.00
2023-01-19T07:45:09.457Z,100.00
2023-01-19T07:47:37.617Z,100.00
2023-01-19T07:50:06.875Z,100.00
2023-01-19T07:52:36.529Z,100.00
2023-01-19T07:55:04.907Z,100.00
2023-01-19T07:57:36.423Z,100.00
2023-01-19T08:00:08.626Z,100.00
2023-01-19T08:02:38.039Z,100.00
2023-01-19T08:05:06.819Z,100.00
2023-01-19T08:07:39.165Z,100.00
2023-01-19T08:10:08.492Z,100.00
2023-01-19T08:12:36.754Z,100.00
2023-01-19T08:15:05.563Z,100.00
2023-01-19T08:17:34.808Z,77.62
2023-01-19T08:20:02.944Z,78.06
2023-01-19T08:22:31.141Z,78.30
2023-01-19T08:25:00.861Z,79.25
2023-01-19T08:27:29.030Z,81.34
2023-01-19T08:29:58.926Z,82.74
2023-01-19T08:32:27.541Z,81.83
2023-01-19T08:34:56.016Z,79.53
2023-01-19T08:37:24.951Z,81.93
2023-01-19T08:39:55.531Z,79.89
2023-01-19T08:42:25.089Z,80.47
2023-01-19T08:44:58.109Z,80.59
2023-01-19T08:47:26.702Z,81.14
2023-01-19T08:50:03.633Z,79.13
2023-01-19T08:52:33.803Z,76.11
2023-01-19T08:55:04.257Z,74.30
2023-01-19T08:57:33.815Z,75.97
2023-01-19T09:00:03.844Z,72.86
2023-01-19T09:02:32.108Z,74.39
2023-01-19T09:05:00.321Z,74.95
2023-01-19T09:07:30.559Z,74.82
2023-01-19T09:10:00.621Z,73.81
2023-01-19T09:12:28.740Z,72.96
2023-01-19T09:14:58.290Z,74.85
2023-01-19T09:17:26.478Z,74.39
2023-01-19T09:22:43.179Z,74.64
2023-01-19T09:25:11.641Z,75.05
2023-01-19T09:27:39.744Z,75.35
2023-01-19T09:30:11.641Z,75.83
2023-01-19T09:32:39.781Z,76.74
2023-01-19T09:35:08.263Z,76.47
2023-01-19T09:37:36.407Z,75.80
2023-01-19T09:40:04.940Z,75.16
2023-01-19T09:42:41.289Z,75.38
2023-01-19T09:45:19.257Z,76.50
2023-01-19T09:47:49.843Z,76.89
2023-01-19T09:50:22.853Z,75.03
2023-01-19T09:53:01.385Z,76.79
2023-01-19T09:55:30.750Z,77.33
2023-01-19T09:57:59.426Z,77.94
2023-01-19T10:00:32.789Z,78.34
2023-01-19T10:03:16.674Z,79.32
2023-01-19T10:05:50.195Z,79.60
2023-01-19T10:08:25.375Z,78.77
2023-01-19T10:10:58.427Z,78.08
2023-01-19T10:13:35.375Z,79.25
2023-01-19T10:16:23.480Z,79.85
2023-01-19T10:18:55.424Z,79.86
2023-01-19T10:21:27.490Z,79.05
2023-01-19T10:23:59.852Z,79.81
2023-01-19T10:26:34.565Z,80.28
2023-01-19T10:29:06.662Z,79.45
2023-01-19T10:31:40.897Z,79.30
2023-01-19T10:34:18.874Z,78.23
2023-01-19T10:36:50.647Z,80.12
2023-01-19T10:39:20.353Z,80.49
2023-01-19T10:41:51.543Z,81.54
2023-01-19T10:44:27.751Z,80.31
2023-01-19T10:47:00.441Z,80.89
2023-01-19T10:49:33.781Z,82.46
2023-01-19T10:52:02.356Z,84.53
2023-01-19T10:54:32.830Z,83.63
2023-01-19T10:57:04.613Z,83.55
2023-01-19T10:59:36.144Z,80.91
2023-01-19T11:02:22.288Z,82.21
2023-01-19T11:04:54.896Z,81.57
2023-01-19T11:07:25.089Z,79.37
2023-01-19T11:10:21.316Z,80.11
2023-01-19T11:13:01.526Z,80.63
2023-01-19T11:15:42.319Z,80.10
2023-01-19T11:18:25.327Z,80.54
2023-01-19T11:20:56.310Z,81.54
2023-01-19T11:23:28.431Z,80.74
2023-01-19T11:26:00.607Z,81.91
2023-01-19T11:28:32.944Z,82.34
2023-01-19T11:31:11.892Z,83.14
2023-01-19T11:33:44.379Z,84.02
2023-01-19T11:36:17.976Z,84.93
2023-01-19T11:38:49.084Z,84.05
2023-01-19T11:41:20.873Z,84.03
2023-01-19T11:43:55.896Z,84.28
2023-01-19T11:46:27.900Z,85.01
2023-01-19T11:49:03.347Z,84.84
2023-01-19T11:51:39.904Z,85.95
2023-01-19T11:54:19.276Z,84.87
2023-01-19T11:56:49.804Z,86.69
2023-01-19T11:59:18.007Z,86.58
2023-01-19T12:01:50.739Z,83.76
2023-01-19T12:04:27.750Z,84.09
2023-01-19T12:07:00.092Z,82.97
2023-01-19T12:09:34.002Z,84.81
2023-01-19T12:12:05.144Z,85.94
2023-01-19T12:14:39.601Z,84.90
2023-01-19T12:17:10.335Z,85.63
2023-01-19T12:19:49.096Z,87.35
2023-01-19T12:22:20.863Z,88.16
2023-01-19T12:24:57.543Z,87.44
2023-01-19T12:27:39.322Z,86.93
2023-01-19T12:30:17.528Z,86.98
2023-01-19T12:32:45.897Z,87.24
2023-01-19T12:35:50.234Z,87.89
2023-01-19T12:38:39.344Z,88.70
2023-01-19T12:41:22.551Z,89.49
2023-01-19T12:44:21.400Z,90.50
2023-01-19T12:46:51.999Z,90.24
2023-01-19T12:49:27.439Z,92.65
2023-01-19T12:52:13.258Z,95.43
2023-01-19T12:54:51.744Z,99.99
2023-01-19T12:57:24.565Z,100.00
2023-01-19T12:59:59.885Z,100.00
2023-01-19T13:02:53.517Z,100.00
2023-01-19T13:05:47.631Z,100.00
2023-01-19T13:08:25.668Z,100.00
2023-01-19T13:11:23.783Z,100.00
2023-01-19T13:14:35.995Z,100.00
2023-01-19T13:17:20.653Z,100.00
2023-01-19T13:19:55.183Z,100.00
2023-01-19T13:23:01.935Z,100.00
2023-01-19T13:25:35.621Z,100.00
2023-01-19T13:28:10.390Z,100.00
2023-01-19T13:30:48.251Z,100.00
2023-01-19T13:33:21.382Z,100.00
2023-01-19T13:35:55.855Z,100.00
2023-01-19T13:38:25.255Z,100.00
2023-01-19T13:40:59.094Z,100.00
2023-01-19T13:43:31.666Z,100.00
2023-01-19T13:46:01.405Z,100.00
2023-01-19T13:48:29.920Z,100.00
2023-01-19T13:51:04.292Z,100.00
2023-01-19T13:53:32.612Z,100.00
2023-01-19T13:56:20.787Z,100.00
2023-01-19T13:59:13.045Z,100.00
2023-01-19T14:01:47.048Z,100.00
2023-01-19T14:04:36.180Z,100.00
2023-01-19T14:07:13.273Z,100.00
2023-01-19T14:09:49.123Z,100.00
2023-01-19T14:12:18.972Z,100.00
2023-01-19T14:14:49.495Z,100.00
2023-01-19T14:17:26.659Z,100.00
2023-01-19T14:19:56.583Z,100.00
2023-01-19T14:22:39.429Z,100.00
2023-01-19T14:25:30.619Z,100.00
2023-01-19T14:28:29.088Z,100.00
2023-01-19T14:30:59.316Z,100.00
2023-01-19T14:33:38.111Z,100.00
2023-01-19T14:36:26.346Z,100.00
2023-01-19T14:38:56.893Z,100.00
2023-01-19T14:41:28.333Z,100.00
2023-01-19T14:43:58.933Z,100.00
2023-01-19T14:46:28.262Z,100.00
2023-01-19T14:49:05.620Z,100.00
2023-01-19T14:51:44.593Z,100.00
2023-01-19T14:54:21.870Z,100.00
2023-01-19T14:56:50.411Z,100.00
2023-01-19T14:59:24.991Z,100.00
2023-01-19T15:01:53.572Z,100.00
2023-01-19T15:04:22.123Z,100.00
2023-01-19T15:06:50.659Z,100.00
2023-01-19T15:09:20.991Z,100.00
2023-01-19T15:11:51.579Z,100.00
2023-01-19T15:14:22.409Z,100.00
2023-01-19T15:16:51.631Z,100.00
2023-01-19T15:19:22.207Z,100.00
2023-01-19T15:21:50.451Z,100.00
2023-01-19T15:24:18.738Z,100.00
2023-01-19T15:26:47.073Z,100.00
2023-01-19T15:29:28.951Z,100.00
2023-01-19T15:31:57.720Z,100.00
2023-01-19T15:34:25.931Z,100.00
2023-01-19T15:36:54.084Z,100.00
2023-01-19T15:39:23.369Z,100.00
2023-01-19T15:41:53.879Z,100.00
2023-01-19T15:44:23.524Z,100.00
2023-01-19T15:46:53.855Z,100.00
2023-01-19T15:49:25.139Z,100.00
2023-01-19T15:51:53.554Z,100.00
2023-01-19T15:54:21.814Z,100.00
2023-01-19T15:56:50.975Z,100.00
2023-01-19T15:59:19.180Z,100.00
2023-01-19T16:01:50.966Z,100.00
2023-01-19T16:07:08.617Z,100.00
2023-01-19T16:09:36.932Z,100.00
2023-01-19T16:12:07.936Z,100.00
2023-01-19T16:14:40.318Z,100.00
2023-01-19T16:17:10.007Z,100.00
2023-01-19T16:19:38.248Z,100.00
2023-01-19T16:22:06.875Z,100.00
2023-01-19T16:24:35.168Z,100.00
2023-01-19T16:27:04.112Z,100.00
2023-01-19T16:29:32.542Z,100.00
2023-01-19T16:32:00.751Z,100.00
2023-01-19T16:34:30.402Z,100.00
2023-01-19T16:36:58.570Z,100.00
2023-01-19T16:39:26.809Z,100.00
2023-01-19T16:41:55.093Z,100.00
2023-01-19T16:44:26.186Z,100.00
2023-01-19T16:46:54.567Z,100.00
2023-01-19T16:49:24.890Z,100.00
2023-01-19T16:51:55.715Z,100.00
2023-01-19T16:54:26.857Z,100.00
2023-01-19T16:56:56.622Z,100.00
2023-01-19T16:59:27.103Z,100.00
2023-01-19T17:01:56.102Z,100.00
2023-01-19T17:04:25.217Z,100.00
2023-01-19T17:06:55.179Z,100.00
2023-01-19T17:09:23.477Z,100.00
2023-01-19T17:11:51.622Z,100.00
2023-01-19T17:14:21.570Z,100.00
2023-01-19T17:16:50.576Z,100.00
2023-01-19T17:19:22.268Z,100.00
2023-01-19T17:21:51.326Z,100.00
2023-01-19T17:24:20.950Z,100.00
2023-01-19T17:26:49.741Z,100.00
2023-01-19T17:29:18.930Z,100.00
2023-01-19T17:31:47.409Z,100.00
2023-01-19T17:34:15.665Z,100.00
2023-01-19T17:36:43.950Z,100.00
2023-01-19T17:39:15.075Z,100.00
2023-01-19T17:41:44.875Z,100.00
2023-01-19T17:44:13.017Z,100.00
2023-01-19T17:46:41.192Z,100.00
2023-01-19T17:49:09.650Z,100.00
2023-01-19T17:51:38.302Z,100.00
2023-01-19T17:54:06.671Z,100.00
2023-01-19T17:56:37.634Z,100.00
2023-01-19T17:59:08.349Z,100.00
2023-01-19T18:01:39.954Z,100.00
2023-01-19T18:04:09.612Z,100.00
2023-01-19T18:06:38.226Z,100.00
2023-01-19T18:09:07.617Z,100.00
2023-01-19T18:11:36.169Z,100.00
2023-01-19T18:14:06.141Z,100.00
2023-01-19T18:16:36.494Z,100.00
2023-01-19T18:19:05.011Z,100.00
2023-01-19T18:21:33.249Z,100.00
2023-01-19T18:24:03.383Z,100.00
2023-01-19T18:26:33.057Z,100.00
2023-01-19T18:29:01.420Z,100.00
2023-01-19T18:31:30.374Z,100.00
2023-01-19T18:34:01.198Z,100.00
2023-01-19T18:36:32.075Z,100.00
2023-01-19T18:39:00.321Z,100.00
2023-01-19T18:41:29.899Z,100.00
2023-01-19T18:43:59.881Z,100.00
2023-01-19T18:46:28.595Z,100.00
2023-01-19T18:48:57.034Z,100.00
2023-01-19T18:51:26.814Z,100.00
2023-01-19T18:53:55.145Z,100.00
2023-01-19T18:56:23.522Z,100.00
2023-01-19T18:58:52.435Z,100.00
2023-01-19T19:01:23.945Z,100.00
2023-01-19T19:03:53.037Z,100.00
2023-01-19T19:06:22.103Z,100.00
2023-01-19T19:08:53.225Z,100.00
2023-01-19T19:11:22.986Z,100.00
2023-01-19T19:13:54.167Z,100.00
2023-01-19T19:16:22.679Z,100.00
2023-01-19T19:18:51.152Z,100.00
2023-01-19T19:21:21.273Z,100.00
2023-01-19T19:23:53.851Z,100.00
2023-01-19T19:26:22.373Z,100.00
2023-01-19T19:28:50.576Z,100.00
2023-01-19T19:31:21.141Z,100.00
2023-01-19T19:33:51.198Z,100.00
2023-01-19T19:36:20.292Z,100.00
2023-01-19T19:38:48.580Z,100.00
2023-01-19T19:41:20.339Z,100.00
2023-01-19T19:43:48.653Z,100.00
2023-01-19T19:46:20.162Z,100.00
2023-01-19T19:48:48.864Z,100.00
2023-01-19T19:51:19.719Z,100.00
2023-01-19T19:53:51.238Z,100.00
2023-01-19T19:56:22.985Z,100.00
2023-01-19T19:58:52.578Z,100.00
2023-01-19T20:01:24.153Z,100.00
2023-01-19T20:03:54.289Z,100.00
2023-01-19T20:06:24.705Z,100.00
2023-01-19T20:08:54.702Z,100.00
2023-01-19T20:11:27.699Z,100.00
2023-01-19T20:13:56.004Z,100.00
2023-01-19T20:16:25.031Z,100.00
2023-01-19T20:18:55.282Z,100.00
2023-01-19T20:21:25.815Z,100.00
2023-01-19T20:23:55.139Z,100.00
2023-01-19T20:26:27.944Z,100.00
2023-01-19T20:28:59.716Z,100.00
2023-01-19T20:31:30.197Z,100.00
2023-01-19T20:34:01.039Z,100.00
2023-01-19T20:36:29.484Z,100.00
2023-01-19T20:38:58.648Z,100.00
2023-01-19T20:41:28.341Z,100.00
2023-01-19T20:43:56.624Z,100.00
2023-01-19T20:46:24.798Z,100.00
2023-01-19T20:48:54.793Z,100.00
2023-01-19T20:51:23.230Z,100.00
2023-01-19T20:53:51.511Z,100.00
2023-01-19T20:56:19.799Z,100.00
2023-01-19T20:58:49.353Z,100.00
2023-01-19T21:01:19.885Z,100.00
2023-01-19T21:03:48.473Z,100.00
2023-01-19T21:06:17.495Z,100.00
2023-01-19T21:08:45.711Z,100.00
2023-01-19T21:11:14.407Z,100.00
2023-01-19T21:13:42.567Z,100.00
2023-01-19T21:16:12.385Z,100.00
2023-01-19T21:18:40.634Z,100.00
2023-01-19T21:21:14.920Z,100.00
2023-01-19T21:23:50.083Z,100.00
2023-01-19T21:26:18.472Z,100.00
2023-01-19T21:28:46.605Z,100.00
2023-01-19T21:31:16.202Z,100.00
2023-01-19T21:33:44.762Z,100.00
2023-01-19T21:36:12.908Z,100.00
2023-01-19T21:38:41.058Z,100.00
2023-01-19T21:41:12.738Z,100.00
2023-01-19T21:43:43.189Z,100.00
2023-01-19T21:46:13.780Z,100.00
2023-01-19T21:48:43.548Z,100.00
2023-01-19T21:51:11.710Z,100.00
2023-01-19T21:53:40.230Z,100.00
2023-01-19T21:56:09.474Z,100.00
2023-01-19T21:58:37.798Z,100.00
2023-01-19T22:01:09.820Z,100.00
2023-01-19T22:03:38.387Z,100.00
2023-01-19T22:06:10.788Z,100.00
2023-01-19T22:08:39.452Z,100.00
2023-01-19T22:11:08.954Z,100.00
2023-01-19T22:13:38.702Z,100.00
2023-01-19T22:16:10.523Z,100.00
2023-01-19T22:18:39.910Z,100.00
2023-01-19T22:21:14.150Z,100.00
2023-01-19T22:23:43.250Z,100.00
2023-01-19T22:26:12.934Z,100.00
2023-01-19T22:28:41.255Z,100.00
2023-01-19T22:31:11.217Z,100.00
2023-01-19T22:33:40.170Z,100.00
2023-01-19T22:36:15.632Z,100.00
2023-01-19T22:38:44.784Z,100.00
2023-01-19T22:41:15.207Z,100.00
2023-01-19T22:43:43.931Z,100.00
2023-01-19T22:46:12.321Z,100.00
2023-01-19T22:48:41.397Z,100.00
2023-01-19T22:51:09.909Z,100.00
2023-01-19T22:53:39.576Z,100.00
2023-01-19T22:56:12.435Z,100.00
2023-01-19T22:58:41.579Z,100.00
2023-01-19T23:01:10.505Z,100.00
2023-01-19T23:03:39.589Z,100.00
2023-01-19T23:06:09.335Z,100.00
2023-01-19T23:08:39.646Z,100.00
2023-01-19T23:11:08.582Z,100.00
2023-01-19T23:13:37.271Z,100.00
2023-01-19T23:16:06.084Z,100.00
2023-01-19T23:18:34.637Z,100.00
2023-01-19T23:21:06.939Z,100.00
2023-01-19T23:23:36.187Z,100.00
2023-01-19T23:26:08.484Z,100.00
2023-01-19T23:28:37.670Z,100.00
2023-01-19T23:31:15.392Z,100.00
2023-01-19T23:33:44.395Z,100.00
2023-01-19T23:36:13.002Z,100.00
2023-01-19T23:38:41.150Z,100.00
2023-01-19T23:41:10.704Z,100.00
2023-01-19T23:43:38.885Z,100.00
2023-01-19T23:46:08.623Z,100.00
2023-01-19T23:48:37.375Z,100.00
2023-01-19T23:51:07.902Z,100.00
2023-01-19T23:53:36.495Z,100.00
2023-01-19T23:56:14.705Z,100.00
2023-01-19T23:58:42.989Z,100.00
